sensor_id;sensor_type;location;lat;lon;timestamp;P1;durP1;ratioP1;P2;durP2;ratioP2
16179;SDS011;8196;49.428;10.906;2024-01-07T00:01:29;10.02;;;7.15;;
16179;SDS011;8196;49.428;10.906;2024-01-07T00:03:58;7.45;;;6.38;;
16179;SDS011;8196;49.428;10.906;2024-01-07T00:06:26;8.63;;;7.57;;
16179;SDS011;8196;49.428;10.906;2024-01-07T00:08:53;9.02;;;7.70;;
16179;SDS011;8196;49.428;10.906;2024-01-07T00:11:20;9.40;;;7.85;;
16179;SDS011;8196;49.428;10.906;2024-01-07T00:13:47;9.25;;;7.85;;
16179;SDS011;8196;49.428;10.906;2024-01-07T00:16:15;9.93;;;7.82;;
16179;SDS011;8196;49.428;10.906;2024-01-07T00:18:42;10.05;;;7.85;;
16179;SDS011;8196;49.428;10.906;2024-01-07T00:21:09;6.85;;;6.07;;
16179;SDS011;8196;49.428;10.906;2024-01-07T00:23:36;9.38;;;7.63;;
16179;SDS011;8196;49.428;10.906;2024-01-07T00:26:04;8.43;;;6.93;;
16179;SDS011;8196;49.428;10.906;2024-01-07T00:28:31;7.25;;;6.38;;
16179;SDS011;8196;49.428;10.906;2024-01-07T00:30:58;9.63;;;7.95;;
16179;SDS011;8196;49.428;10.906;2024-01-07T00:33:25;9.30;;;7.05;;
16179;SDS011;8196;49.428;10.906;2024-01-07T00:35:52;10.13;;;8.25;;
16179;SDS011;8196;49.428;10.906;2024-01-07T00:38:19;9.32;;;7.80;;
16179;SDS011;8196;49.428;10.906;2024-01-07T00:40:49;9.90;;;7.60;;
16179;SDS011;8196;49.428;10.906;2024-01-07T00:43:16;9.07;;;7.38;;
16179;SDS011;8196;49.428;10.906;2024-01-07T00:45:44;6.97;;;6.28;;
16179;SDS011;8196;49.428;10.906;2024-01-07T00:48:11;7.95;;;7.15;;
16179;SDS011;8196;49.428;10.906;2024-01-07T00:50:39;9.45;;;7.47;;
16179;SDS011;8196;49.428;10.906;2024-01-07T00:53:06;9.10;;;7.00;;
16179;SDS011;8196;49.428;10.906;2024-01-07T00:55:33;8.03;;;6.90;;
16179;SDS011;8196;49.428;10.906;2024-01-07T00:58:01;7.93;;;6.97;;
16179;SDS011;8196;49.428;10.906;2024-01-07T01:00:29;8.98;;;7.30;;
16179;SDS011;8196;49.428;10.906;2024-01-07T01:02:56;9.45;;;7.07;;
16179;SDS011;8196;49.428;10.906;2024-01-07T01:05:24;8.10;;;6.90;;
16179;SDS011;8196;49.428;10.906;2024-01-07T01:07:51;7.25;;;6.50;;
16179;SDS011;8196;49.428;10.906;2024-01-07T01:10:18;8.50;;;7.03;;
16179;SDS011;8196;49.428;10.906;2024-01-07T01:12:46;7.40;;;5.93;;
16179;SDS011;8196;49.428;10.906;2024-01-07T01:15:13;8.18;;;6.32;;
16179;SDS011;8196;49.428;10.906;2024-01-07T01:17:42;9.50;;;8.10;;
16179;SDS011;8196;49.428;10.906;2024-01-07T01:20:10;9.50;;;7.50;;
16179;SDS011;8196;49.428;10.906;2024-01-07T01:22:37;6.93;;;6.00;;
16179;SDS011;8196;49.428;10.906;2024-01-07T01:25:04;6.20;;;5.60;;
16179;SDS011;8196;49.428;10.906;2024-01-07T01:27:32;6.50;;;5.82;;
16179;SDS011;8196;49.428;10.906;2024-01-07T01:29:59;6.80;;;6.10;;
16179;SDS011;8196;49.428;10.906;2024-01-07T01:32:26;8.32;;;7.20;;
16179;SDS011;8196;49.428;10.906;2024-01-07T01:34:53;8.20;;;7.25;;
16179;SDS011;8196;49.428;10.906;2024-01-07T01:37:21;8.93;;;6.90;;
16179;SDS011;8196;49.428;10.906;2024-01-07T01:39:48;7.40;;;6.22;;
16179;SDS011;8196;49.428;10.906;2024-01-07T01:42:15;8.05;;;6.70;;
16179;SDS011;8196;49.428;10.906;2024-01-07T01:44:42;6.72;;;5.85;;
16179;SDS011;8196;49.428;10.906;2024-01-07T01:47:10;6.50;;;5.80;;
16179;SDS011;8196;49.428;10.906;2024-01-07T01:49:37;7.93;;;7.13;;
16179;SDS011;8196;49.428;10.906;2024-01-07T01:52:04;9.25;;;8.25;;
16179;SDS011;8196;49.428;10.906;2024-01-07T01:54:32;7.90;;;7.10;;
16179;SDS011;8196;49.428;10.906;2024-01-07T01:57:00;8.32;;;7.03;;
16179;SDS011;8196;49.428;10.906;2024-01-07T01:59:27;8.77;;;7.22;;
16179;SDS011;8196;49.428;10.906;2024-01-07T02:01:55;7.40;;;6.17;;
16179;SDS011;8196;49.428;10.906;2024-01-07T02:04:22;8.48;;;7.68;;
16179;SDS011;8196;49.428;10.906;2024-01-07T02:06:50;9.43;;;7.80;;
16179;SDS011;8196;49.428;10.906;2024-01-07T02:09:17;10.27;;;8.68;;
16179;SDS011;8196;49.428;10.906;2024-01-07T02:11:59;9.30;;;7.45;;
16179;SDS011;8196;49.428;10.906;2024-01-07T02:14:26;7.13;;;6.43;;
16179;SDS011;8196;49.428;10.906;2024-01-07T02:16:53;7.43;;;6.63;;
16179;SDS011;8196;49.428;10.906;2024-01-07T02:19:20;7.88;;;6.50;;
16179;SDS011;8196;49.428;10.906;2024-01-07T02:21:50;10.48;;;8.57;;
16179;SDS011;8196;49.428;10.906;2024-01-07T02:24:18;8.45;;;6.60;;
16179;SDS011;8196;49.428;10.906;2024-01-07T02:26:45;8.52;;;6.60;;
16179;SDS011;8196;49.428;10.906;2024-01-07T02:29:12;9.32;;;7.80;;
16179;SDS011;8196;49.428;10.906;2024-01-07T02:31:39;9.80;;;8.13;;
16179;SDS011;8196;49.428;10.906;2024-01-07T02:34:08;7.00;;;6.18;;
16179;SDS011;8196;49.428;10.906;2024-01-07T02:36:37;8.07;;;7.13;;
16179;SDS011;8196;49.428;10.906;2024-01-07T02:39:05;8.80;;;7.40;;
16179;SDS011;8196;49.428;10.906;2024-01-07T02:41:32;9.43;;;8.05;;
16179;SDS011;8196;49.428;10.906;2024-01-07T02:43:59;10.40;;;8.45;;
16179;SDS011;8196;49.428;10.906;2024-01-07T02:46:26;10.25;;;8.88;;
16179;SDS011;8196;49.428;10.906;2024-01-07T02:48:53;9.77;;;7.70;;
16179;SDS011;8196;49.428;10.906;2024-01-07T02:51:20;9.15;;;7.35;;
16179;SDS011;8196;49.428;10.906;2024-01-07T02:53:48;8.85;;;7.05;;
16179;SDS011;8196;49.428;10.906;2024-01-07T02:56:15;8.52;;;7.60;;
16179;SDS011;8196;49.428;10.906;2024-01-07T02:58:42;10.38;;;8.30;;
16179;SDS011;8196;49.428;10.906;2024-01-07T03:01:09;9.77;;;7.70;;
16179;SDS011;8196;49.428;10.906;2024-01-07T03:03:37;9.95;;;7.60;;
16179;SDS011;8196;49.428;10.906;2024-01-07T03:06:04;8.85;;;7.63;;
16179;SDS011;8196;49.428;10.906;2024-01-07T03:08:33;9.25;;;8.07;;
16179;SDS011;8196;49.428;10.906;2024-01-07T03:11:04;8.30;;;7.20;;
16179;SDS011;8196;49.428;10.906;2024-01-07T03:13:32;9.48;;;7.80;;
16179;SDS011;8196;49.428;10.906;2024-01-07T03:15:59;10.00;;;7.50;;
16179;SDS011;8196;49.428;10.906;2024-01-07T03:18:27;8.52;;;7.50;;
16179;SDS011;8196;49.428;10.906;2024-01-07T03:20:56;9.18;;;7.55;;
16179;SDS011;8196;49.428;10.906;2024-01-07T03:23:23;10.23;;;7.57;;
16179;SDS011;8196;49.428;10.906;2024-01-07T03:25:50;9.43;;;7.88;;
16179;SDS011;8196;49.428;10.906;2024-01-07T03:28:18;10.43;;;7.93;;
16179;SDS011;8196;49.428;10.906;2024-01-07T03:30:45;7.68;;;6.88;;
16179;SDS011;8196;49.428;10.906;2024-01-07T03:33:12;9.02;;;7.68;;
16179;SDS011;8196;49.428;10.906;2024-01-07T03:35:40;8.73;;;6.82;;
16179;SDS011;8196;49.428;10.906;2024-01-07T03:38:07;8.63;;;6.97;;
16179;SDS011;8196;49.428;10.906;2024-01-07T03:40:34;8.05;;;6.78;;
16179;SDS011;8196;49.428;10.906;2024-01-07T03:43:01;7.32;;;6.43;;
16179;SDS011;8196;49.428;10.906;2024-01-07T03:45:28;7.60;;;6.47;;
16179;SDS011;8196;49.428;10.906;2024-01-07T03:47:56;6.97;;;6.00;;
16179;SDS011;8196;49.428;10.906;2024-01-07T03:50:23;8.85;;;6.68;;
16179;SDS011;8196;49.428;10.906;2024-01-07T03:52:50;6.72;;;5.80;;
16179;SDS011;8196;49.428;10.906;2024-01-07T03:55:18;7.90;;;6.53;;
16179;SDS011;8196;49.428;10.906;2024-01-07T03:57:45;8.43;;;6.70;;
16179;SDS011;8196;49.428;10.906;2024-01-07T04:00:12;7.85;;;6.45;;
16179;SDS011;8196;49.428;10.906;2024-01-07T04:02:39;8.02;;;6.43;;
16179;SDS011;8196;49.428;10.906;2024-01-07T04:05:07;7.50;;;6.32;;
16179;SDS011;8196;49.428;10.906;2024-01-07T04:07:35;7.75;;;6.35;;
16179;SDS011;8196;49.428;10.906;2024-01-07T04:10:02;7.28;;;6.45;;
16179;SDS011;8196;49.428;10.906;2024-01-07T04:12:29;8.13;;;6.33;;
16179;SDS011;8196;49.428;10.906;2024-01-07T04:14:57;7.43;;;6.13;;
16179;SDS011;8196;49.428;10.906;2024-01-07T04:17:24;8.07;;;6.30;;
16179;SDS011;8196;49.428;10.906;2024-01-07T04:19:51;7.77;;;6.73;;
16179;SDS011;8196;49.428;10.906;2024-01-07T04:22:19;8.13;;;6.60;;
16179;SDS011;8196;49.428;10.906;2024-01-07T04:24:46;8.05;;;6.50;;
16179;SDS011;8196;49.428;10.906;2024-01-07T04:27:13;8.13;;;6.82;;
16179;SDS011;8196;49.428;10.906;2024-01-07T04:29:40;8.65;;;6.85;;
16179;SDS011;8196;49.428;10.906;2024-01-07T04:32:08;7.78;;;6.68;;
16179;SDS011;8196;49.428;10.906;2024-01-07T04:34:35;7.07;;;6.38;;
16179;SDS011;8196;49.428;10.906;2024-01-07T04:37:02;8.68;;;6.88;;
16179;SDS011;8196;49.428;10.906;2024-01-07T04:39:29;9.35;;;7.25;;
16179;SDS011;8196;49.428;10.906;2024-01-07T04:41:56;10.10;;;7.70;;
16179;SDS011;8196;49.428;10.906;2024-01-07T04:44:24;8.33;;;6.70;;
16179;SDS011;8196;49.428;10.906;2024-01-07T04:46:51;8.30;;;6.67;;
16179;SDS011;8196;49.428;10.906;2024-01-07T04:49:18;8.33;;;6.50;;
16179;SDS011;8196;49.428;10.906;2024-01-07T04:51:45;9.00;;;6.87;;
16179;SDS011;8196;49.428;10.906;2024-01-07T04:54:12;7.67;;;6.40;;
16179;SDS011;8196;49.428;10.906;2024-01-07T04:56:40;9.03;;;6.73;;
16179;SDS011;8196;49.428;10.906;2024-01-07T04:59:07;8.40;;;6.80;;
16179;SDS011;8196;49.428;10.906;2024-01-07T05:01:34;7.97;;;6.60;;
16179;SDS011;8196;49.428;10.906;2024-01-07T05:04:02;7.63;;;6.07;;
16179;SDS011;8196;49.428;10.906;2024-01-07T05:06:29;8.43;;;5.95;;
16179;SDS011;8196;49.428;10.906;2024-01-07T05:08:56;7.85;;;6.10;;
16179;SDS011;8196;49.428;10.906;2024-01-07T05:11:23;6.88;;;5.82;;
16179;SDS011;8196;49.428;10.906;2024-01-07T05:13:51;7.38;;;4.82;;
16179;SDS011;8196;49.428;10.906;2024-01-07T05:16:20;8.70;;;5.00;;
16179;SDS011;8196;49.428;10.906;2024-01-07T05:18:47;6.65;;;4.75;;
16179;SDS011;8196;49.428;10.906;2024-01-07T05:21:17;7.00;;;4.80;;
16179;SDS011;8196;49.428;10.906;2024-01-07T05:23:45;5.80;;;4.50;;
16179;SDS011;8196;49.428;10.906;2024-01-07T05:26:12;6.22;;;4.80;;
16179;SDS011;8196;49.428;10.906;2024-01-07T05:28:39;5.65;;;4.35;;
16179;SDS011;8196;49.428;10.906;2024-01-07T05:31:13;5.82;;;4.10;;
16179;SDS011;8196;49.428;10.906;2024-01-07T05:33:41;5.68;;;4.30;;
16179;SDS011;8196;49.428;10.906;2024-01-07T05:36:09;5.68;;;4.50;;
16179;SDS011;8196;49.428;10.906;2024-01-07T05:38:36;5.88;;;4.25;;
16179;SDS011;8196;49.428;10.906;2024-01-07T05:41:04;4.82;;;3.85;;
16179;SDS011;8196;49.428;10.906;2024-01-07T05:43:31;5.00;;;3.90;;
16179;SDS011;8196;49.428;10.906;2024-01-07T05:48:26;5.88;;;4.10;;
16179;SDS011;8196;49.428;10.906;2024-01-07T05:50:53;5.97;;;3.78;;
16179;SDS011;8196;49.428;10.906;2024-01-07T05:53:20;5.43;;;3.78;;
16179;SDS011;8196;49.428;10.906;2024-01-07T05:55:47;6.05;;;3.90;;
16179;SDS011;8196;49.428;10.906;2024-01-07T05:58:14;5.45;;;4.05;;
16179;SDS011;8196;49.428;10.906;2024-01-07T06:00:42;6.50;;;4.30;;
16179;SDS011;8196;49.428;10.906;2024-01-07T06:03:10;5.00;;;4.00;;
16179;SDS011;8196;49.428;10.906;2024-01-07T06:05:38;7.60;;;4.60;;
16179;SDS011;8196;49.428;10.906;2024-01-07T06:08:06;6.72;;;4.80;;
16179;SDS011;8196;49.428;10.906;2024-01-07T06:10:33;5.55;;;3.95;;
16179;SDS011;8196;49.428;10.906;2024-01-07T06:13:00;5.65;;;4.30;;
16179;SDS011;8196;49.428;10.906;2024-01-07T06:15:29;6.88;;;4.45;;
16179;SDS011;8196;49.428;10.906;2024-01-07T06:17:56;6.63;;;4.43;;
16179;SDS011;8196;49.428;10.906;2024-01-07T06:20:23;7.35;;;4.60;;
16179;SDS011;8196;49.428;10.906;2024-01-07T06:22:51;6.88;;;4.90;;
16179;SDS011;8196;49.428;10.906;2024-01-07T06:25:18;5.97;;;4.45;;
16179;SDS011;8196;49.428;10.906;2024-01-07T06:27:46;6.80;;;4.93;;
16179;SDS011;8196;49.428;10.906;2024-01-07T06:30:13;6.70;;;4.63;;
16179;SDS011;8196;49.428;10.906;2024-01-07T06:32:43;7.85;;;4.95;;
16179;SDS011;8196;49.428;10.906;2024-01-07T06:35:10;6.80;;;4.65;;
16179;SDS011;8196;49.428;10.906;2024-01-07T06:37:37;6.22;;;4.38;;
16179;SDS011;8196;49.428;10.906;2024-01-07T06:40:05;6.85;;;4.95;;
16179;SDS011;8196;49.428;10.906;2024-01-07T06:42:32;6.77;;;5.10;;
16179;SDS011;8196;49.428;10.906;2024-01-07T06:45:00;7.10;;;5.50;;
16179;SDS011;8196;49.428;10.906;2024-01-07T06:47:28;7.35;;;5.20;;
16179;SDS011;8196;49.428;10.906;2024-01-07T06:49:55;6.55;;;4.90;;
16179;SDS011;8196;49.428;10.906;2024-01-07T06:52:22;7.82;;;5.40;;
16179;SDS011;8196;49.428;10.906;2024-01-07T06:54:49;7.40;;;5.65;;
16179;SDS011;8196;49.428;10.906;2024-01-07T06:57:17;6.78;;;5.18;;
16179;SDS011;8196;49.428;10.906;2024-01-07T06:59:44;8.70;;;5.65;;
16179;SDS011;8196;49.428;10.906;2024-01-07T07:02:11;7.15;;;5.43;;
16179;SDS011;8196;49.428;10.906;2024-01-07T07:04:38;7.25;;;5.18;;
16179;SDS011;8196;49.428;10.906;2024-01-07T07:07:05;8.27;;;5.80;;
16179;SDS011;8196;49.428;10.906;2024-01-07T07:09:33;7.40;;;5.28;;
16179;SDS011;8196;49.428;10.906;2024-01-07T07:12:00;8.52;;;5.72;;
16179;SDS011;8196;49.428;10.906;2024-01-07T07:14:27;7.90;;;5.68;;
16179;SDS011;8196;49.428;10.906;2024-01-07T07:16:54;8.80;;;5.77;;
16179;SDS011;8196;49.428;10.906;2024-01-07T07:19:22;8.80;;;5.72;;
16179;SDS011;8196;49.428;10.906;2024-01-07T07:21:49;9.43;;;6.47;;
16179;SDS011;8196;49.428;10.906;2024-01-07T07:24:16;7.97;;;6.00;;
16179;SDS011;8196;49.428;10.906;2024-01-07T07:26:43;8.23;;;6.10;;
16179;SDS011;8196;49.428;10.906;2024-01-07T07:29:10;8.10;;;6.00;;
16179;SDS011;8196;49.428;10.906;2024-01-07T07:31:38;9.65;;;6.63;;
16179;SDS011;8196;49.428;10.906;2024-01-07T07:34:08;8.25;;;6.45;;
16179;SDS011;8196;49.428;10.906;2024-01-07T07:36:36;9.43;;;6.95;;
16179;SDS011;8196;49.428;10.906;2024-01-07T07:39:05;9.20;;;6.45;;
16179;SDS011;8196;49.428;10.906;2024-01-07T07:41:32;9.80;;;6.72;;
16179;SDS011;8196;49.428;10.906;2024-01-07T07:44:00;9.85;;;6.85;;
16179;SDS011;8196;49.428;10.906;2024-01-07T07:46:27;8.18;;;6.18;;
16179;SDS011;8196;49.428;10.906;2024-01-07T07:48:54;9.25;;;6.80;;
16179;SDS011;8196;49.428;10.906;2024-01-07T07:51:21;9.18;;;6.63;;
16179;SDS011;8196;49.428;10.906;2024-01-07T07:53:48;9.93;;;6.80;;
16179;SDS011;8196;49.428;10.906;2024-01-07T07:56:15;9.88;;;6.97;;
16179;SDS011;8196;49.428;10.906;2024-01-07T07:58:43;10.30;;;7.03;;
16179;SDS011;8196;49.428;10.906;2024-01-07T08:01:10;10.13;;;6.90;;
16179;SDS011;8196;49.428;10.906;2024-01-07T08:03:37;10.38;;;7.18;;
16179;SDS011;8196;49.428;10.906;2024-01-07T08:06:04;10.80;;;7.38;;
16179;SDS011;8196;49.428;10.906;2024-01-07T08:08:37;11.20;;;7.53;;
16179;SDS011;8196;49.428;10.906;2024-01-07T08:11:04;10.07;;;6.80;;
16179;SDS011;8196;49.428;10.906;2024-01-07T08:13:37;9.07;;;7.20;;
16179;SDS011;8196;49.428;10.906;2024-01-07T08:16:05;8.13;;;6.05;;
16179;SDS011;8196;49.428;10.906;2024-01-07T08:18:35;9.43;;;7.00;;
16179;SDS011;8196;49.428;10.906;2024-01-07T08:21:02;8.38;;;6.43;;
16179;SDS011;8196;49.428;10.906;2024-01-07T08:23:30;9.63;;;7.38;;
16179;SDS011;8196;49.428;10.906;2024-01-07T08:25:57;9.70;;;7.35;;
16179;SDS011;8196;49.428;10.906;2024-01-07T08:28:24;9.75;;;7.13;;
16179;SDS011;8196;49.428;10.906;2024-01-07T08:30:51;10.40;;;7.70;;
16179;SDS011;8196;49.428;10.906;2024-01-07T08:33:20;10.18;;;7.57;;
16179;SDS011;8196;49.428;10.906;2024-01-07T08:35:47;9.15;;;6.55;;
16179;SDS011;8196;49.428;10.906;2024-01-07T08:38:14;9.65;;;7.15;;
16179;SDS011;8196;49.428;10.906;2024-01-07T08:40:41;9.73;;;7.10;;
16179;SDS011;8196;49.428;10.906;2024-01-07T08:43:09;10.07;;;6.50;;
16179;SDS011;8196;49.428;10.906;2024-01-07T08:45:36;9.60;;;7.13;;
16179;SDS011;8196;49.428;10.906;2024-01-07T08:48:04;9.60;;;6.93;;
16179;SDS011;8196;49.428;10.906;2024-01-07T08:50:31;11.45;;;7.85;;
16179;SDS011;8196;49.428;10.906;2024-01-07T08:52:59;11.90;;;8.02;;
16179;SDS011;8196;49.428;10.906;2024-01-07T08:55:30;9.53;;;7.27;;
16179;SDS011;8196;49.428;10.906;2024-01-07T08:57:57;9.48;;;6.50;;
16179;SDS011;8196;49.428;10.906;2024-01-07T09:00:30;10.50;;;7.00;;
16179;SDS011;8196;49.428;10.906;2024-01-07T09:02:57;9.68;;;6.65;;
16179;SDS011;8196;49.428;10.906;2024-01-07T09:05:25;10.43;;;7.28;;
16179;SDS011;8196;49.428;10.906;2024-01-07T09:07:53;8.57;;;6.90;;
16179;SDS011;8196;49.428;10.906;2024-01-07T09:10:20;10.68;;;7.25;;
16179;SDS011;8196;49.428;10.906;2024-01-07T09:12:47;9.77;;;6.50;;
16179;SDS011;8196;49.428;10.906;2024-01-07T09:15:17;10.18;;;7.00;;
16179;SDS011;8196;49.428;10.906;2024-01-07T09:17:45;10.13;;;7.10;;
16179;SDS011;8196;49.428;10.906;2024-01-07T09:20:12;15.07;;;9.77;;
16179;SDS011;8196;49.428;10.906;2024-01-07T09:22:40;10.20;;;7.25;;
16179;SDS011;8196;49.428;10.906;2024-01-07T09:25:08;10.02;;;6.97;;
16179;SDS011;8196;49.428;10.906;2024-01-07T09:27:35;10.55;;;7.45;;
16179;SDS011;8196;49.428;10.906;2024-01-07T09:30:02;11.10;;;7.80;;
16179;SDS011;8196;49.428;10.906;2024-01-07T09:32:30;9.45;;;7.25;;
16179;SDS011;8196;49.428;10.906;2024-01-07T09:35:01;10.40;;;7.40;;
16179;SDS011;8196;49.428;10.906;2024-01-07T09:37:28;10.70;;;7.68;;
16179;SDS011;8196;49.428;10.906;2024-01-07T09:42:25;10.68;;;7.70;;
16179;SDS011;8196;49.428;10.906;2024-01-07T09:44:53;10.77;;;7.53;;
16179;SDS011;8196;49.428;10.906;2024-01-07T09:47:20;10.35;;;7.40;;
16179;SDS011;8196;49.428;10.906;2024-01-07T09:49:49;11.60;;;7.68;;
16179;SDS011;8196;49.428;10.906;2024-01-07T09:52:17;11.90;;;7.70;;
16179;SDS011;8196;49.428;10.906;2024-01-07T09:54:45;11.57;;;8.13;;
16179;SDS011;8196;49.428;10.906;2024-01-07T09:57:15;10.10;;;7.20;;
16179;SDS011;8196;49.428;10.906;2024-01-07T09:59:42;12.17;;;8.67;;
16179;SDS011;8196;49.428;10.906;2024-01-07T10:02:09;11.63;;;7.63;;
16179;SDS011;8196;49.428;10.906;2024-01-07T10:04:36;11.23;;;7.65;;
16179;SDS011;8196;49.428;10.906;2024-01-07T10:07:04;10.07;;;7.97;;
16179;SDS011;8196;49.428;10.906;2024-01-07T10:09:32;10.77;;;7.67;;
16179;SDS011;8196;49.428;10.906;2024-01-07T10:12:00;10.75;;;8.00;;
16179;SDS011;8196;49.428;10.906;2024-01-07T10:14:29;12.90;;;8.00;;
16179;SDS011;8196;49.428;10.906;2024-01-07T10:16:59;12.05;;;7.78;;
16179;SDS011;8196;49.428;10.906;2024-01-07T10:19:26;11.40;;;7.82;;
16179;SDS011;8196;49.428;10.906;2024-01-07T10:22:01;14.05;;;8.40;;
16179;SDS011;8196;49.428;10.906;2024-01-07T10:24:37;11.27;;;8.07;;
16179;SDS011;8196;49.428;10.906;2024-01-07T10:27:06;11.63;;;8.00;;
16179;SDS011;8196;49.428;10.906;2024-01-07T10:29:33;11.52;;;8.30;;
16179;SDS011;8196;49.428;10.906;2024-01-07T10:32:01;12.50;;;8.43;;
16179;SDS011;8196;49.428;10.906;2024-01-07T10:34:31;10.85;;;7.63;;
16179;SDS011;8196;49.428;10.906;2024-01-07T10:36:59;11.90;;;8.27;;
16179;SDS011;8196;49.428;10.906;2024-01-07T10:39:27;13.07;;;8.13;;
16179;SDS011;8196;49.428;10.906;2024-01-07T10:41:54;12.80;;;7.90;;
16179;SDS011;8196;49.428;10.906;2024-01-07T10:44:21;11.00;;;7.50;;
16179;SDS011;8196;49.428;10.906;2024-01-07T10:46:49;11.18;;;7.80;;
16179;SDS011;8196;49.428;10.906;2024-01-07T10:49:19;10.73;;;7.77;;
16179;SDS011;8196;49.428;10.906;2024-01-07T10:51:50;12.90;;;8.05;;
16179;SDS011;8196;49.428;10.906;2024-01-07T10:54:23;11.60;;;7.85;;
16179;SDS011;8196;49.428;10.906;2024-01-07T10:56:51;11.20;;;8.18;;
16179;SDS011;8196;49.428;10.906;2024-01-07T10:59:20;11.77;;;7.93;;
16179;SDS011;8196;49.428;10.906;2024-01-07T11:01:49;11.60;;;8.20;;
16179;SDS011;8196;49.428;10.906;2024-01-07T11:04:21;11.88;;;7.75;;
16179;SDS011;8196;49.428;10.906;2024-01-07T11:09:39;12.43;;;8.10;;
16179;SDS011;8196;49.428;10.906;2024-01-07T11:12:11;12.93;;;8.60;;
16179;SDS011;8196;49.428;10.906;2024-01-07T11:14:41;12.60;;;8.13;;
16179;SDS011;8196;49.428;10.906;2024-01-07T11:17:12;11.85;;;7.82;;
16179;SDS011;8196;49.428;10.906;2024-01-07T11:19:55;12.27;;;8.13;;
16179;SDS011;8196;49.428;10.906;2024-01-07T11:22:27;12.77;;;8.30;;
16179;SDS011;8196;49.428;10.906;2024-01-07T11:24:57;12.40;;;8.60;;
16179;SDS011;8196;49.428;10.906;2024-01-07T11:27:28;9.82;;;7.00;;
16179;SDS011;8196;49.428;10.906;2024-01-07T11:29:58;12.73;;;8.32;;
16179;SDS011;8196;49.428;10.906;2024-01-07T11:32:28;11.98;;;8.57;;
16179;SDS011;8196;49.428;10.906;2024-01-07T11:34:56;11.73;;;7.72;;
16179;SDS011;8196;49.428;10.906;2024-01-07T11:37:25;11.18;;;7.78;;
16179;SDS011;8196;49.428;10.906;2024-01-07T11:39:55;11.73;;;8.00;;
16179;SDS011;8196;49.428;10.906;2024-01-07T11:42:24;11.52;;;8.00;;
16179;SDS011;8196;49.428;10.906;2024-01-07T11:44:53;9.57;;;7.15;;
16179;SDS011;8196;49.428;10.906;2024-01-07T11:47:21;10.07;;;7.15;;
16179;SDS011;8196;49.428;10.906;2024-01-07T11:49:48;11.00;;;7.53;;
16179;SDS011;8196;49.428;10.906;2024-01-07T11:52:16;10.98;;;7.38;;
16179;SDS011;8196;49.428;10.906;2024-01-07T11:54:43;12.13;;;7.90;;
16179;SDS011;8196;49.428;10.906;2024-01-07T11:57:11;10.57;;;7.40;;
16179;SDS011;8196;49.428;10.906;2024-01-07T11:59:38;11.97;;;7.40;;
16179;SDS011;8196;49.428;10.906;2024-01-07T12:02:10;11.30;;;7.03;;
16179;SDS011;8196;49.428;10.906;2024-01-07T12:04:37;11.35;;;6.95;;
16179;SDS011;8196;49.428;10.906;2024-01-07T12:07:04;10.23;;;6.90;;
16179;SDS011;8196;49.428;10.906;2024-01-07T12:09:32;10.85;;;7.05;;
16179;SDS011;8196;49.428;10.906;2024-01-07T12:11:59;11.30;;;7.10;;
16179;SDS011;8196;49.428;10.906;2024-01-07T12:14:27;9.45;;;6.55;;
16179;SDS011;8196;49.428;10.906;2024-01-07T12:16:56;9.93;;;7.30;;
16179;SDS011;8196;49.428;10.906;2024-01-07T12:19:24;9.35;;;6.63;;
16179;SDS011;8196;49.428;10.906;2024-01-07T12:22:06;12.52;;;7.75;;
16179;SDS011;8196;49.428;10.906;2024-01-07T12:24:34;10.57;;;7.00;;
16179;SDS011;8196;49.428;10.906;2024-01-07T12:27:05;11.75;;;7.43;;
16179;SDS011;8196;49.428;10.906;2024-01-07T12:29:32;11.35;;;7.38;;
16179;SDS011;8196;49.428;10.906;2024-01-07T12:31:59;10.65;;;6.93;;
16179;SDS011;8196;49.428;10.906;2024-01-07T12:34:29;12.17;;;7.43;;
16179;SDS011;8196;49.428;10.906;2024-01-07T12:36:57;10.55;;;7.40;;
16179;SDS011;8196;49.428;10.906;2024-01-07T12:39:26;10.52;;;7.03;;
16179;SDS011;8196;49.428;10.906;2024-01-07T12:41:54;10.75;;;7.05;;
16179;SDS011;8196;49.428;10.906;2024-01-07T12:44:26;10.85;;;6.85;;
16179;SDS011;8196;49.428;10.906;2024-01-07T12:46:53;9.90;;;6.35;;
16179;SDS011;8196;49.428;10.906;2024-01-07T12:49:20;8.52;;;6.10;;
16179;SDS011;8196;49.428;10.906;2024-01-07T12:51:48;10.57;;;6.03;;
16179;SDS011;8196;49.428;10.906;2024-01-07T12:54:16;8.30;;;5.72;;
16179;SDS011;8196;49.428;10.906;2024-01-07T12:56:43;10.30;;;5.55;;
16179;SDS011;8196;49.428;10.906;2024-01-07T12:59:10;9.75;;;6.30;;
16179;SDS011;8196;49.428;10.906;2024-01-07T13:01:37;8.48;;;5.97;;
16179;SDS011;8196;49.428;10.906;2024-01-07T13:04:05;9.90;;;5.80;;
16179;SDS011;8196;49.428;10.906;2024-01-07T13:06:32;8.50;;;5.70;;
16179;SDS011;8196;49.428;10.906;2024-01-07T13:08:59;8.82;;;5.72;;
16179;SDS011;8196;49.428;10.906;2024-01-07T13:11:31;8.85;;;5.57;;
16179;SDS011;8196;49.428;10.906;2024-01-07T13:13:58;9.05;;;5.90;;
16179;SDS011;8196;49.428;10.906;2024-01-07T13:16:28;8.65;;;5.32;;
16179;SDS011;8196;49.428;10.906;2024-01-07T13:18:55;10.17;;;5.70;;
16179;SDS011;8196;49.428;10.906;2024-01-07T13:21:22;7.88;;;5.20;;
16179;SDS011;8196;49.428;10.906;2024-01-07T13:23:50;8.75;;;5.60;;
16179;SDS011;8196;49.428;10.906;2024-01-07T13:26:17;9.00;;;5.45;;
16179;SDS011;8196;49.428;10.906;2024-01-07T13:28:44;7.45;;;5.25;;
16179;SDS011;8196;49.428;10.906;2024-01-07T13:31:12;7.78;;;5.40;;
16179;SDS011;8196;49.428;10.906;2024-01-07T13:33:40;7.70;;;5.23;;
16179;SDS011;8196;49.428;10.906;2024-01-07T13:36:08;6.28;;;4.80;;
16179;SDS011;8196;49.428;10.906;2024-01-07T13:38:37;8.13;;;4.90;;
16179;SDS011;8196;49.428;10.906;2024-01-07T13:41:04;7.35;;;4.70;;
16179;SDS011;8196;49.428;10.906;2024-01-07T13:43:32;8.73;;;4.85;;
16179;SDS011;8196;49.428;10.906;2024-01-07T13:45:59;7.32;;;4.60;;
16179;SDS011;8196;49.428;10.906;2024-01-07T13:48:29;6.33;;;4.40;;
16179;SDS011;8196;49.428;10.906;2024-01-07T13:50:56;5.95;;;4.47;;
16179;SDS011;8196;49.428;10.906;2024-01-07T13:53:24;7.45;;;4.70;;
16179;SDS011;8196;49.428;10.906;2024-01-07T13:55:51;7.38;;;4.80;;
16179;SDS011;8196;49.428;10.906;2024-01-07T13:58:18;5.95;;;4.30;;
16179;SDS011;8196;49.428;10.906;2024-01-07T14:00:46;6.32;;;4.47;;
16179;SDS011;8196;49.428;10.906;2024-01-07T14:03:13;6.18;;;4.30;;
16179;SDS011;8196;49.428;10.906;2024-01-07T14:05:41;6.72;;;4.40;;
16179;SDS011;8196;49.428;10.906;2024-01-07T14:08:08;5.80;;;4.40;;
16179;SDS011;8196;49.428;10.906;2024-01-07T14:10:35;6.07;;;4.50;;
16179;SDS011;8196;49.428;10.906;2024-01-07T14:13:03;6.85;;;4.40;;
16179;SDS011;8196;49.428;10.906;2024-01-07T14:15:30;6.72;;;4.75;;
16179;SDS011;8196;49.428;10.906;2024-01-07T14:17:57;7.43;;;4.78;;
16179;SDS011;8196;49.428;10.906;2024-01-07T14:20:26;6.00;;;4.22;;
16179;SDS011;8196;49.428;10.906;2024-01-07T14:22:54;6.88;;;4.30;;
16179;SDS011;8196;49.428;10.906;2024-01-07T14:25:21;5.53;;;4.28;;
16179;SDS011;8196;49.428;10.906;2024-01-07T14:27:48;5.27;;;3.60;;
16179;SDS011;8196;49.428;10.906;2024-01-07T14:30:16;6.63;;;3.80;;
16179;SDS011;8196;49.428;10.906;2024-01-07T14:32:43;4.80;;;3.75;;
16179;SDS011;8196;49.428;10.906;2024-01-07T14:35:11;13.63;;;8.00;;
16179;SDS011;8196;49.428;10.906;2024-01-07T14:37:39;6.43;;;4.57;;
16179;SDS011;8196;49.428;10.906;2024-01-07T14:40:07;6.18;;;4.50;;
16179;SDS011;8196;49.428;10.906;2024-01-07T14:42:34;5.60;;;4.05;;
16179;SDS011;8196;49.428;10.906;2024-01-07T14:45:01;5.18;;;4.00;;
16179;SDS011;8196;49.428;10.906;2024-01-07T14:47:30;5.40;;;4.00;;
16179;SDS011;8196;49.428;10.906;2024-01-07T14:49:57;4.88;;;4.07;;
16179;SDS011;8196;49.428;10.906;2024-01-07T14:52:24;4.25;;;3.80;;
16179;SDS011;8196;49.428;10.906;2024-01-07T14:54:52;5.18;;;3.80;;